sensor_id;sensor_type;location;lat;lon;timestamp;temperature;humidity
63313;DHT22;49442;45.640;13.812;2023-03-07T00:00:07;22.40;76.50
63313;DHT22;49442;45.640;13.812;2023-03-07T00:02:33;22.40;76.50
63313;DHT22;49442;45.640;13.812;2023-03-07T00:04:59;22.40;76.50
63313;DHT22;49442;45.640;13.812;2023-03-07T00:07:24;22.40;76.40
63313;DHT22;49442;45.640;13.812;2023-03-07T00:09:50;22.40;76.40
63313;DHT22;49442;45.640;13.812;2023-03-07T00:12:16;22.40;76.40
63313;DHT22;49442;45.640;13.812;2023-03-07T00:14:41;22.40;76.40
63313;DHT22;49442;45.640;13.812;2023-03-07T00:17:07;22.40;76.30
63313;DHT22;49442;45.640;13.812;2023-03-07T00:19:33;22.40;76.30
63313;DHT22;49442;45.640;13.812;2023-03-07T00:21:59;22.40;76.30
63313;DHT22;49442;45.640;13.812;2023-03-07T00:24:25;22.40;76.30
63313;DHT22;49442;45.640;13.812;2023-03-07T00:26:50;22.40;76.30
63313;DHT22;49442;45.640;13.812;2023-03-07T00:29:16;22.40;76.40
63313;DHT22;49442;45.640;13.812;2023-03-07T00:31:42;22.40;76.50
63313;DHT22;49442;45.640;13.812;2023-03-07T00:34:07;22.40;76.50
63313;DHT22;49442;45.640;13.812;2023-03-07T00:36:33;22.40;76.40
63313;DHT22;49442;45.640;13.812;2023-03-07T00:38:58;22.40;76.40
63313;DHT22;49442;45.640;13.812;2023-03-07T00:41:26;22.40;76.40
63313;DHT22;49442;45.640;13.812;2023-03-07T00:43:53;22.40;76.30
63313;DHT22;49442;45.640;13.812;2023-03-07T00:46:21;22.40;76.40
63313;DHT22;49442;45.640;13.812;2023-03-07T00:48:47;22.40;76.30
63313;DHT22;49442;45.640;13.812;2023-03-07T00:51:15;22.40;76.30
63313;DHT22;49442;45.640;13.812;2023-03-07T00:53:41;22.30;76.20
63313;DHT22;49442;45.640;13.812;2023-03-07T00:56:18;22.40;76.30
63313;DHT22;49442;45.640;13.812;2023-03-07T00:58:45;22.30;76.20
63313;DHT22;49442;45.640;13.812;2023-03-07T01:01:14;22.30;76.20
63313;DHT22;49442;45.640;13.812;2023-03-07T01:03:40;22.30;76.20
63313;DHT22;49442;45.640;13.812;2023-03-07T01:06:12;22.30;76.20
63313;DHT22;49442;45.640;13.812;2023-03-07T01:08:38;22.30;76.20
63313;DHT22;49442;45.640;13.812;2023-03-07T01:11:05;22.30;76.20
63313;DHT22;49442;45.640;13.812;2023-03-07T01:13:32;22.30;76.20
63313;DHT22;49442;45.640;13.812;2023-03-07T01:16:18;22.30;76.20
63313;DHT22;49442;45.640;13.812;2023-03-07T01:18:47;22.30;76.20
63313;DHT22;49442;45.640;13.812;2023-03-07T01:21:36;22.30;76.20
63313;DHT22;49442;45.640;13.812;2023-03-07T01:24:03;22.20;76.20
63313;DHT22;49442;45.640;13.812;2023-03-07T01:26:30;22.20;76.30
63313;DHT22;49442;45.640;13.812;2023-03-07T01:28:58;22.20;76.20
63313;DHT22;49442;45.640;13.812;2023-03-07T01:31:25;22.20;76.30
63313;DHT22;49442;45.640;13.812;2023-03-07T01:33:52;22.20;76.30
63313;DHT22;49442;45.640;13.812;2023-03-07T01:36:28;22.20;76.30
63313;DHT22;49442;45.640;13.812;2023-03-07T01:39:15;22.20;76.30
63313;DHT22;49442;45.640;13.812;2023-03-07T01:41:42;22.20;76.40
63313;DHT22;49442;45.640;13.812;2023-03-07T01:44:26;22.20;76.40
63313;DHT22;49442;45.640;13.812;2023-03-07T01:46:53;22.20;76.40
63313;DHT22;49442;45.640;13.812;2023-03-07T01:49:24;22.20;77.10
63313;DHT22;49442;45.640;13.812;2023-03-07T01:52:14;22.20;76.40
63313;DHT22;49442;45.640;13.812;2023-03-07T01:54:46;22.20;77.20
63313;DHT22;49442;45.640;13.812;2023-03-07T01:57:15;22.20;76.50
63313;DHT22;49442;45.640;13.812;2023-03-07T01:59:45;22.10;76.40
63313;DHT22;49442;45.640;13.812;2023-03-07T02:02:15;22.10;76.40
63313;DHT22;49442;45.640;13.812;2023-03-07T02:04:50;22.10;76.40
63313;DHT22;49442;45.640;13.812;2023-03-07T02:07:20;22.10;76.40
63313;DHT22;49442;45.640;13.812;2023-03-07T02:09:48;22.10;76.40
63313;DHT22;49442;45.640;13.812;2023-03-07T02:12:14;22.10;76.40
63313;DHT22;49442;45.640;13.812;2023-03-07T02:14:45;22.10;76.40
63313;DHT22;49442;45.640;13.812;2023-03-07T02:17:11;22.10;76.40
63313;DHT22;49442;45.640;13.812;2023-03-07T02:22:14;22.10;76.50
63313;DHT22;49442;45.640;13.812;2023-03-07T02:24:53;22.10;76.50
63313;DHT22;49442;45.640;13.812;2023-03-07T02:27:23;22.10;76.50
63313;DHT22;49442;45.640;13.812;2023-03-07T02:29:50;22.10;76.50
63313;DHT22;49442;45.640;13.812;2023-03-07T02:32:16;22.10;76.50
63313;DHT22;49442;45.640;13.812;2023-03-07T02:34:41;22.10;76.60
63313;DHT22;49442;45.640;13.812;2023-03-07T02:37:32;22.10;76.50
63313;DHT22;49442;45.640;13.812;2023-03-07T02:40:05;22.00;76.50
63313;DHT22;49442;45.640;13.812;2023-03-07T02:42:35;22.00;76.60
63313;DHT22;49442;45.640;13.812;2023-03-07T02:45:05;22.00;76.60
63313;DHT22;49442;45.640;13.812;2023-03-07T02:47:31;22.00;77.30
63313;DHT22;49442;45.640;13.812;2023-03-07T02:49:57;22.10;76.70
63313;DHT22;49442;45.640;13.812;2023-03-07T02:52:23;22.10;76.70
63313;DHT22;49442;45.640;13.812;2023-03-07T02:54:49;22.00;76.60
63313;DHT22;49442;45.640;13.812;2023-03-07T02:57:15;22.00;76.70
63313;DHT22;49442;45.640;13.812;2023-03-07T02:59:41;22.00;76.70
63313;DHT22;49442;45.640;13.812;2023-03-07T03:02:06;22.00;76.70
63313;DHT22;49442;45.640;13.812;2023-03-07T03:04:32;22.00;76.70
63313;DHT22;49442;45.640;13.812;2023-03-07T03:06:58;22.00;76.70
63313;DHT22;49442;45.640;13.812;2023-03-07T03:09:24;22.00;76.70
63313;DHT22;49442;45.640;13.812;2023-03-07T03:11:50;22.00;76.60
63313;DHT22;49442;45.640;13.812;2023-03-07T03:14:16;22.00;76.60
63313;DHT22;49442;45.640;13.812;2023-03-07T03:16:41;22.00;76.50
63313;DHT22;49442;45.640;13.812;2023-03-07T03:19:07;22.00;76.50
63313;DHT22;49442;45.640;13.812;2023-03-07T03:21:33;22.00;76.50
63313;DHT22;49442;45.640;13.812;2023-03-07T03:24:04;22.00;76.50
63313;DHT22;49442;45.640;13.812;2023-03-07T03:26:29;22.00;77.20
63313;DHT22;49442;45.640;13.812;2023-03-07T03:28:55;22.00;76.50
63313;DHT22;49442;45.640;13.812;2023-03-07T03:31:20;22.00;76.50
63313;DHT22;49442;45.640;13.812;2023-03-07T03:33:46;22.00;76.50
63313;DHT22;49442;45.640;13.812;2023-03-07T03:36:15;22.00;76.60
63313;DHT22;49442;45.640;13.812;2023-03-07T03:38:41;22.00;76.60
63313;DHT22;49442;45.640;13.812;2023-03-07T03:41:11;22.00;76.50
63313;DHT22;49442;45.640;13.812;2023-03-07T03:43:37;22.00;76.60
63313;DHT22;49442;45.640;13.812;2023-03-07T03:46:03;22.00;76.60
63313;DHT22;49442;45.640;13.812;2023-03-07T03:48:29;22.00;76.50
63313;DHT22;49442;45.640;13.812;2023-03-07T03:51:08;22.00;76.60
63313;DHT22;49442;45.640;13.812;2023-03-07T03:53:36;22.00;76.60
63313;DHT22;49442;45.640;13.812;2023-03-07T03:56:11;22.00;76.50
63313;DHT22;49442;45.640;13.812;2023-03-07T03:58:37;21.90;76.50
63313;DHT22;49442;45.640;13.812;2023-03-07T04:01:05;21.90;76.50
63313;DHT22;49442;45.640;13.812;2023-03-07T04:03:36;21.90;76.50
63313;DHT22;49442;45.640;13.812;2023-03-07T04:06:04;21.90;76.50
63313;DHT22;49442;45.640;13.812;2023-03-07T04:08:31;21.90;76.90
63313;DHT22;49442;45.640;13.812;2023-03-07T04:10:57;21.90;76.50
63313;DHT22;49442;45.640;13.812;2023-03-07T04:13:23;21.90;76.50
63313;DHT22;49442;45.640;13.812;2023-03-07T04:15:48;21.90;76.50
63313;DHT22;49442;45.640;13.812;2023-03-07T04:18:15;21.90;76.50
63313;DHT22;49442;45.640;13.812;2023-03-07T04:20:45;21.80;76.40
63313;DHT22;49442;45.640;13.812;2023-03-07T04:23:11;21.90;76.50
63313;DHT22;49442;45.640;13.812;2023-03-07T04:25:37;21.80;76.50
63313;DHT22;49442;45.640;13.812;2023-03-07T04:28:02;21.80;76.50
63313;DHT22;49442;45.640;13.812;2023-03-07T04:30:28;21.80;76.50
63313;DHT22;49442;45.640;13.812;2023-03-07T04:32:54;21.80;76.50
63313;DHT22;49442;45.640;13.812;2023-03-07T04:35:19;21.80;76.50
63313;DHT22;49442;45.640;13.812;2023-03-07T04:37:45;21.80;76.50
63313;DHT22;49442;45.640;13.812;2023-03-07T04:40:11;21.80;76.50
63313;DHT22;49442;45.640;13.812;2023-03-07T04:42:37;21.80;76.50
63313;DHT22;49442;45.640;13.812;2023-03-07T04:45:03;21.80;76.50
63313;DHT22;49442;45.640;13.812;2023-03-07T04:47:29;21.80;76.40
63313;DHT22;49442;45.640;13.812;2023-03-07T04:49:55;21.80;76.40
63313;DHT22;49442;45.640;13.812;2023-03-07T04:52:20;21.80;76.50
63313;DHT22;49442;45.640;13.812;2023-03-07T04:54:46;21.80;76.40
63313;DHT22;49442;45.640;13.812;2023-03-07T04:57:11;21.80;76.40
63313;DHT22;49442;45.640;13.812;2023-03-07T04:59:37;21.80;76.40
63313;DHT22;49442;45.640;13.812;2023-03-07T05:02:08;21.80;76.30
63313;DHT22;49442;45.640;13.812;2023-03-07T05:04:36;21.80;76.20
63313;DHT22;49442;45.640;13.812;2023-03-07T05:07:01;21.80;76.20
63313;DHT22;49442;45.640;13.812;2023-03-07T05:09:27;21.80;76.20
63313;DHT22;49442;45.640;13.812;2023-03-07T05:11:53;21.80;76.20
63313;DHT22;49442;45.640;13.812;2023-03-07T05:14:19;21.70;76.10
63313;DHT22;49442;45.640;13.812;2023-03-07T05:16:44;21.80;76.20
63313;DHT22;49442;45.640;13.812;2023-03-07T05:19:10;21.70;76.90
63313;DHT22;49442;45.640;13.812;2023-03-07T05:21:38;21.70;76.10
63313;DHT22;49442;45.640;13.812;2023-03-07T05:24:06;21.70;76.20
63313;DHT22;49442;45.640;13.812;2023-03-07T05:26:32;21.70;76.10
63313;DHT22;49442;45.640;13.812;2023-03-07T05:28:58;21.70;76.20
63313;DHT22;49442;45.640;13.812;2023-03-07T05:31:24;21.70;76.10
63313;DHT22;49442;45.640;13.812;2023-03-07T05:33:49;21.70;76.10
63313;DHT22;49442;45.640;13.812;2023-03-07T05:36:16;21.70;76.20
63313;DHT22;49442;45.640;13.812;2023-03-07T05:38:42;21.70;76.10
63313;DHT22;49442;45.640;13.812;2023-03-07T05:41:08;21.70;76.10
63313;DHT22;49442;45.640;13.812;2023-03-07T05:43:33;21.70;76.20
63313;DHT22;49442;45.640;13.812;2023-03-07T05:45:59;21.60;76.10
63313;DHT22;49442;45.640;13.812;2023-03-07T05:48:25;21.60;76.10
63313;DHT22;49442;45.640;13.812;2023-03-07T05:50:50;21.60;76.10
63313;DHT22;49442;45.640;13.812;2023-03-07T05:53:16;21.60;76.10
63313;DHT22;49442;45.640;13.812;2023-03-07T05:55:42;21.60;76.10
63313;DHT22;49442;45.640;13.812;2023-03-07T05:58:08;21.60;76.10
63313;DHT22;49442;45.640;13.812;2023-03-07T06:00:33;21.60;76.10
63313;DHT22;49442;45.640;13.812;2023-03-07T06:03:02;21.60;76.10
63313;DHT22;49442;45.640;13.812;2023-03-07T06:05:28;21.60;76.20
63313;DHT22;49442;45.640;13.812;2023-03-07T06:07:54;21.60;76.50
63313;DHT22;49442;45.640;13.812;2023-03-07T06:10:19;21.60;76.50
63313;DHT22;49442;45.640;13.812;2023-03-07T06:12:49;21.60;76.30
63313;DHT22;49442;45.640;13.812;2023-03-07T06:15:15;21.60;76.30
63313;DHT22;49442;45.640;13.812;2023-03-07T06:17:41;21.60;76.30
63313;DHT22;49442;45.640;13.812;2023-03-07T06:20:07;21.60;76.30
63313;DHT22;49442;45.640;13.812;2023-03-07T06:22:34;21.60;76.30
63313;DHT22;49442;45.640;13.812;2023-03-07T06:25:06;21.60;76.30
63313;DHT22;49442;45.640;13.812;2023-03-07T06:27:36;21.60;76.30
63313;DHT22;49442;45.640;13.812;2023-03-07T06:30:03;21.60;76.30
63313;DHT22;49442;45.640;13.812;2023-03-07T06:32:30;21.50;76.30
63313;DHT22;49442;45.640;13.812;2023-03-07T06:34:56;21.50;76.20
63313;DHT22;49442;45.640;13.812;2023-03-07T06:37:22;21.50;76.30
63313;DHT22;49442;45.640;13.812;2023-03-07T06:39:48;21.50;76.30
63313;DHT22;49442;45.640;13.812;2023-03-07T06:42:13;21.50;76.30
63313;DHT22;49442;45.640;13.812;2023-03-07T06:44:39;21.50;76.30
63313;DHT22;49442;45.640;13.812;2023-03-07T06:47:05;21.50;76.20
63313;DHT22;49442;45.640;13.812;2023-03-07T06:49:30;21.50;76.20
63313;DHT22;49442;45.640;13.812;2023-03-07T06:51:56;21.50;76.20
63313;DHT22;49442;45.640;13.812;2023-03-07T06:54:22;21.50;76.20
63313;DHT22;49442;45.640;13.812;2023-03-07T06:56:47;21.50;76.20
63313;DHT22;49442;45.640;13.812;2023-03-07T06:59:13;21.50;76.20
63313;DHT22;49442;45.640;13.812;2023-03-07T07:01:39;21.50;76.20
63313;DHT22;49442;45.640;13.812;2023-03-07T07:04:04;21.50;76.20
63313;DHT22;49442;45.640;13.812;2023-03-07T07:06:30;21.50;76.20
63313;DHT22;49442;45.640;13.812;2023-03-07T07:08:57;21.50;76.20
63313;DHT22;49442;45.640;13.812;2023-03-07T07:11:24;21.50;76.20
63313;DHT22;49442;45.640;13.812;2023-03-07T07:13:50;21.50;76.20
63313;DHT22;49442;45.640;13.812;2023-03-07T07:16:16;21.50;76.50
63313;DHT22;49442;45.640;13.812;2023-03-07T07:18:42;21.40;76.40
63313;DHT22;49442;45.640;13.812;2023-03-07T07:21:08;21.40;76.30
63313;DHT22;49442;45.640;13.812;2023-03-07T07:23:34;21.50;76.40
63313;DHT22;49442;45.640;13.812;2023-03-07T07:26:00;21.40;76.30
63313;DHT22;49442;45.640;13.812;2023-03-07T07:28:26;21.50;76.40
63313;DHT22;49442;45.640;13.812;2023-03-07T07:30:52;21.40;76.30
63313;DHT22;49442;45.640;13.812;2023-03-07T07:33:17;21.40;76.30
63313;DHT22;49442;45.640;13.812;2023-03-07T07:35:44;21.40;76.30
63313;DHT22;49442;45.640;13.812;2023-03-07T07:38:10;21.40;76.30
63313;DHT22;49442;45.640;13.812;2023-03-07T07:40:36;21.40;76.30
63313;DHT22;49442;45.640;13.812;2023-03-07T07:43:01;21.40;76.40
63313;DHT22;49442;45.640;13.812;2023-03-07T07:45:27;21.40;76.40
63313;DHT22;49442;45.640;13.812;2023-03-07T07:47:53;21.40;76.50
63313;DHT22;49442;45.640;13.812;2023-03-07T07:50:20;21.40;75.60
63313;DHT22;49442;45.640;13.812;2023-03-07T07:52:46;21.40;73.00
63313;DHT22;49442;45.640;13.812;2023-03-07T07:55:12;21.30;73.90
63313;DHT22;49442;45.640;13.812;2023-03-07T07:57:41;21.40;73.80
63313;DHT22;49442;45.640;13.812;2023-03-07T08:00:09;21.40;74.30
63313;DHT22;49442;45.640;13.812;2023-03-07T08:02:35;21.40;75.00
63313;DHT22;49442;45.640;13.812;2023-03-07T08:05:01;21.50;75.30
63313;DHT22;49442;45.640;13.812;2023-03-07T08:07:29;21.50;75.20
63313;DHT22;49442;45.640;13.812;2023-03-07T08:09:55;21.60;75.00
63313;DHT22;49442;45.640;13.812;2023-03-07T08:12:20;21.60;74.80
63313;DHT22;49442;45.640;13.812;2023-03-07T08:14:46;21.70;75.50
63313;DHT22;49442;45.640;13.812;2023-03-07T08:17:11;21.70;74.60
63313;DHT22;49442;45.640;13.812;2023-03-07T08:19:37;21.80;74.60
63313;DHT22;49442;45.640;13.812;2023-03-07T08:22:03;21.80;74.50
63313;DHT22;49442;45.640;13.812;2023-03-07T08:24:28;21.80;74.50
63313;DHT22;49442;45.640;13.812;2023-03-07T08:26:57;21.90;74.50
63313;DHT22;49442;45.640;13.812;2023-03-07T08:29:22;21.90;74.40
63313;DHT22;49442;45.640;13.812;2023-03-07T08:31:48;21.90;74.30
63313;DHT22;49442;45.640;13.812;2023-03-07T08:34:16;22.00;74.30
63313;DHT22;49442;45.640;13.812;2023-03-07T08:36:42;22.00;74.30
63313;DHT22;49442;45.640;13.812;2023-03-07T08:39:08;22.00;74.90
63313;DHT22;49442;45.640;13.812;2023-03-07T08:41:34;22.00;74.20
63313;DHT22;49442;45.640;13.812;2023-03-07T08:43:59;22.10;74.40
63313;DHT22;49442;45.640;13.812;2023-03-07T08:46:25;22.10;74.50
63313;DHT22;49442;45.640;13.812;2023-03-07T08:48:51;22.10;74.50
63313;DHT22;49442;45.640;13.812;2023-03-07T08:51:17;22.10;74.60
63313;DHT22;49442;45.640;13.812;2023-03-07T08:53:44;22.10;74.60
63313;DHT22;49442;45.640;13.812;2023-03-07T08:56:12;22.10;74.50
63313;DHT22;49442;45.640;13.812;2023-03-07T08:58:39;22.10;74.50
63313;DHT22;49442;45.640;13.812;2023-03-07T09:01:06;22.20;74.70
63313;DHT22;49442;45.640;13.812;2023-03-07T09:03:33;22.20;74.80
63313;DHT22;49442;45.640;13.812;2023-03-07T09:05:59;22.20;75.00
63313;DHT22;49442;45.640;13.812;2023-03-07T09:08:24;22.20;75.10
63313;DHT22;49442;45.640;13.812;2023-03-07T09:10:50;22.20;75.20
63313;DHT22;49442;45.640;13.812;2023-03-07T09:13:15;22.20;75.30
63313;DHT22;49442;45.640;13.812;2023-03-07T09:15:42;22.20;75.50
63313;DHT22;49442;45.640;13.812;2023-03-07T09:18:08;22.20;75.40
63313;DHT22;49442;45.640;13.812;2023-03-07T09:20:34;22.30;75.70
63313;DHT22;49442;45.640;13.812;2023-03-07T09:22:59;22.30;75.60
63313;DHT22;49442;45.640;13.812;2023-03-07T09:25:25;22.30;75.60
63313;DHT22;49442;45.640;13.812;2023-03-07T09:27:53;22.30;75.50
63313;DHT22;49442;45.640;13.812;2023-03-07T09:30:19;22.30;75.40
63313;DHT22;49442;45.640;13.812;2023-03-07T09:32:47;22.30;75.20
63313;DHT22;49442;45.640;13.812;2023-03-07T09:35:13;22.30;75.30
63313;DHT22;49442;45.640;13.812;2023-03-07T09:37:38;22.40;75.70
63313;DHT22;49442;45.640;13.812;2023-03-07T09:40:04;22.50;75.30
63313;DHT22;49442;45.640;13.812;2023-03-07T09:50:56;22.60;73.70
63313;DHT22;49442;45.640;13.812;2023-03-07T09:53:36;22.60;71.70
63313;DHT22;49442;45.640;13.812;2023-03-07T09:56:23;22.50;67.20
63313;DHT22;49442;45.640;13.812;2023-03-07T09:58:56;22.40;66.70
63313;DHT22;49442;45.640;13.812;2023-03-07T10:01:26;22.20;65.30
63313;DHT22;49442;45.640;13.812;2023-03-07T10:04:03;22.10;65.10
63313;DHT22;49442;45.640;13.812;2023-03-07T10:06:38;22.00;65.10
63313;DHT22;49442;45.640;13.812;2023-03-07T10:09:10;21.90;66.70
63313;DHT22;49442;45.640;13.812;2023-03-07T10:11:49;21.90;67.50
63313;DHT22;49442;45.640;13.812;2023-03-07T10:14:35;21.90;68.30
63313;DHT22;49442;45.640;13.812;2023-03-07T10:17:35;22.00;68.80
63313;DHT22;49442;45.640;13.812;2023-03-07T10:28:26;22.10;71.80
63313;DHT22;49442;45.640;13.812;2023-03-07T10:30:57;22.20;73.50
63313;DHT22;49442;45.640;13.812;2023-03-07T10:33:24;22.10;73.50
63313;DHT22;49442;45.640;13.812;2023-03-07T10:36:02;22.20;73.50
63313;DHT22;49442;45.640;13.812;2023-03-07T10:38:55;22.20;73.70
63313;DHT22;49442;45.640;13.812;2023-03-07T10:41:24;22.20;74.00
63313;DHT22;49442;45.640;13.812;2023-03-07T10:43:51;22.20;74.00
63313;DHT22;49442;45.640;13.812;2023-03-07T10:46:21;22.20;74.00
63313;DHT22;49442;45.640;13.812;2023-03-07T10:52:00;22.20;74.20
63313;DHT22;49442;45.640;13.812;2023-03-07T10:54:33;22.20;74.30
63313;DHT22;49442;45.640;13.812;2023-03-07T10:57:13;22.20;74.40
63313;DHT22;49442;45.640;13.812;2023-03-07T10:59:44;22.20;74.50
63313;DHT22;49442;45.640;13.812;2023-03-07T11:04:47;22.20;74.50
63313;DHT22;49442;45.640;13.812;2023-03-07T11:07:29;22.20;74.50
63313;DHT22;49442;45.640;13.812;2023-03-07T11:09:56;22.20;74.50
63313;DHT22;49442;45.640;13.812;2023-03-07T11:12:24;22.20;74.50
63313;DHT22;49442;45.640;13.812;2023-03-07T11:14:52;22.20;74.50
63313;DHT22;49442;45.640;13.812;2023-03-07T11:19:45;22.20;74.40
63313;DHT22;49442;45.640;13.812;2023-03-07T11:25:34;22.20;74.60
63313;DHT22;49442;45.640;13.812;2023-03-07T11:27:49;22.20;74.60
63313;DHT22;49442;45.640;13.812;2023-03-07T11:33:17;22.20;74.80
63313;DHT22;49442;45.640;13.812;2023-03-07T11:36:00;22.30;74.80
63313;DHT22;49442;45.640;13.812;2023-03-07T11:41:23;22.20;74.80
63313;DHT22;49442;45.640;13.812;2023-03-07T11:49:45;22.20;74.80
63313;DHT22;49442;45.640;13.812;2023-03-07T11:55:32;22.20;74.80
63313;DHT22;49442;45.640;13.812;2023-03-07T12:11:19;22.20;74.70
63313;DHT22;49442;45.640;13.812;2023-03-07T12:19:34;22.20;75.10
63313;DHT22;49442;45.640;13.812;2023-03-07T12:24:36;22.20;75.10
63313;DHT22;49442;45.640;13.812;2023-03-07T12:27:10;22.20;75.00
63313;DHT22;49442;45.640;13.812;2023-03-07T12:32:09;22.20;75.20
63313;DHT22;49442;45.640;13.812;2023-03-07T12:34:42;22.20;75.50
63313;DHT22;49442;45.640;13.812;2023-03-07T12:37:15;22.20;73.90
63313;DHT22;49442;45.640;13.812;2023-03-07T12:39:54;22.10;74.90
63313;DHT22;49442;45.640;13.812;2023-03-07T12:42:47;22.10;76.70
63313;DHT22;49442;45.640;13.812;2023-03-07T12:45:18;22.10;76.70
63313;DHT22;49442;45.640;13.812;2023-03-07T13:00:29;22.10;80.40
63313;DHT22;49442;45.640;13.812;2023-03-07T13:03:00;22.10;80.70
63313;DHT22;49442;45.640;13.812;2023-03-07T13:05:27;22.10;80.40
63313;DHT22;49442;45.640;13.812;2023-03-07T13:07:54;22.10;80.20
63313;DHT22;49442;45.640;13.812;2023-03-07T13:10:22;22.10;80.30
63313;DHT22;49442;45.640;13.812;2023-03-07T13:12:49;22.10;80.40
63313;DHT22;49442;45.640;13.812;2023-03-07T13:27:51;22.10;79.80
63313;DHT22;49442;45.640;13.812;2023-03-07T13:45:51;22.10;78.90
63313;DHT22;49442;45.640;13.812;2023-03-07T13:53:19;22.10;78.50
63313;DHT22;49442;45.640;13.812;2023-03-07T13:55:48;22.10;78.50
63313;DHT22;49442;45.640;13.812;2023-03-07T13:58:33;22.00;78.30
63313;DHT22;49442;45.640;13.812;2023-03-07T14:01:18;22.00;78.20
63313;DHT22;49442;45.640;13.812;2023-03-07T14:06:33;22.00;77.80
63313;DHT22;49442;45.640;13.812;2023-03-07T14:09:03;22.00;77.90
63313;DHT22;49442;45.640;13.812;2023-03-07T14:15:04;22.00;78.00
63313;DHT22;49442;45.640;13.812;2023-03-07T14:17:29;22.00;77.90
63313;DHT22;49442;45.640;13.812;2023-03-07T14:20:27;22.00;78.00
63313;DHT22;49442;45.640;13.812;2023-03-07T14:25:31;22.00;77.70
63313;DHT22;49442;45.640;13.812;2023-03-07T14:28:18;22.00;77.70
63313;DHT22;49442;45.640;13.812;2023-03-07T14:31:04;21.90;77.60
63313;DHT22;49442;45.640;13.812;2023-03-07T14:33:35;21.90;77.60
63313;DHT22;49442;45.640;13.812;2023-03-07T14:36:24;21.90;77.70
63313;DHT22;49442;45.640;13.812;2023-03-07T14:38:54;21.90;77.70
63313;DHT22;49442;45.640;13.812;2023-03-07T14:49:37;21.90;77.70
63313;DHT22;49442;45.640;13.812;2023-03-07T14:52:11;21.90;77.70
63313;DHT22;49442;45.640;13.812;2023-03-07T14:54:37;21.90;77.60
63313;DHT22;49442;45.640;13.812;2023-03-07T14:57:03;21.90;77.60
63313;DHT22;49442;45.640;13.812;2023-03-07T14:59:29;21.90;77.70
63313;DHT22;49442;45.640;13.812;2023-03-07T15:01:55;21.90;77.60
63313;DHT22;49442;45.640;13.812;2023-03-07T15:06:57;21.90;77.60
63313;DHT22;49442;45.640;13.812;2023-03-07T15:09:24;21.90;77.60
63313;DHT22;49442;45.640;13.812;2023-03-07T15:14:42;21.90;77.60
63313;DHT22;49442;45.640;13.812;2023-03-07T15:17:16;21.90;77.60
63313;DHT22;49442;45.640;13.812;2023-03-07T15:22:46;21.90;77.70
63313;DHT22;49442;45.640;13.812;2023-03-07T15:25:20;21.90;77.80
63313;DHT22;49442;45.640;13.812;2023-03-07T15:27:56;21.90;77.90
63313;DHT22;49442;45.640;13.812;2023-03-07T15:30:25;21.90;78.00
63313;DHT22;49442;45.640;13.812;2023-03-07T15:35:44;21.90;78.00
63313;DHT22;49442;45.640;13.812;2023-03-07T15:40:40;21.90;78.20
63313;DHT22;49442;45.640;13.812;2023-03-07T15:45:55;21.90;77.80
63313;DHT22;49442;45.640;13.812;2023-03-07T15:50:56;21.90;77.70
63313;DHT22;49442;45.640;13.812;2023-03-07T15:53:26;21.90;77.70
63313;DHT22;49442;45.640;13.812;2023-03-07T15:56:23;21.80;77.70
63313;DHT22;49442;45.640;13.812;2023-03-07T15:58:53;21.90;77.70
63313;DHT22;49442;45.640;13.812;2023-03-07T16:01:25;21.80;78.00
63313;DHT22;49442;45.640;13.812;2023-03-07T16:03:55;21.90;78.20
63313;DHT22;49442;45.640;13.812;2023-03-07T16:06:38;21.90;78.20
63313;DHT22;49442;45.640;13.812;2023-03-07T16:09:06;21.90;78.20
63313;DHT22;49442;45.640;13.812;2023-03-07T16:11:34;21.90;78.20
63313;DHT22;49442;45.640;13.812;2023-03-07T16:14:00;21.90;78.20
63313;DHT22;49442;45.640;13.812;2023-03-07T16:16:28;21.90;78.20
63313;DHT22;49442;45.640;13.812;2023-03-07T16:18:54;21.90;78.20
63313;DHT22;49442;45.640;13.812;2023-03-07T16:21:24;21.90;78.10
63313;DHT22;49442;45.640;13.812;2023-03-07T16:23:50;21.90;78.10
63313;DHT22;49442;45.640;13.812;2023-03-07T16:26:30;21.90;78.00
63313;DHT22;49442;45.640;13.812;2023-03-07T16:28:56;21.90;77.90
63313;DHT22;49442;45.640;13.812;2023-03-07T16:31:24;21.90;77.90
63313;DHT22;49442;45.640;13.812;2023-03-07T16:33:50;21.90;77.80
63313;DHT22;49442;45.640;13.812;2023-03-07T16:36:15;21.90;77.70
63313;DHT22;49442;45.640;13.812;2023-03-07T16:38:41;21.90;77.60
63313;DHT22;49442;45.640;13.812;2023-03-07T16:41:19;21.90;77.40
63313;DHT22;49442;45.640;13.812;2023-03-07T16:43:50;21.90;77.40
63313;DHT22;49442;45.640;13.812;2023-03-07T16:46:17;21.90;77.30
63313;DHT22;49442;45.640;13.812;2023-03-07T16:48:44;21.90;77.40
63313;DHT22;49442;45.640;13.812;2023-03-07T16:51:28;21.90;77.20
63313;DHT22;49442;45.640;13.812;2023-03-07T16:53:55;21.90;77.20
63313;DHT22;49442;45.640;13.812;2023-03-07T16:56:33;21.90;77.20
63313;DHT22;49442;45.640;13.812;2023-03-07T16:58:59;21.90;77.20
63313;DHT22;49442;45.640;13.812;2023-03-07T17:01:25;21.90;77.10
63313;DHT22;49442;45.640;13.812;2023-03-07T17:03:51;21.90;77.00
63313;DHT22;49442;45.640;13.812;2023-03-07T17:06:17;21.90;76.80
63313;DHT22;49442;45.640;13.812;2023-03-07T17:08:44;21.90;76.80
63313;DHT22;49442;45.640;13.812;2023-03-07T17:11:19;21.90;76.90
63313;DHT22;49442;45.640;13.812;2023-03-07T17:13:47;21.90;76.90
63313;DHT22;49442;45.640;13.812;2023-03-07T17:16:17;21.90;76.90
63313;DHT22;49442;45.640;13.812;2023-03-07T17:18:44;21.90;76.90
63313;DHT22;49442;45.640;13.812;2023-03-07T17:21:16;21.90;76.80
63313;DHT22;49442;45.640;13.812;2023-03-07T17:23:42;21.90;76.50
63313;DHT22;49442;45.640;13.812;2023-03-07T17:26:26;21.90;76.50
63313;DHT22;49442;45.640;13.812;2023-03-07T17:28:53;21.90;76.30
63313;DHT22;49442;45.640;13.812;2023-03-07T17:31:19;21.80;76.20
63313;DHT22;49442;45.640;13.812;2023-03-07T17:33:45;21.90;76.30
63313;DHT22;49442;45.640;13.812;2023-03-07T17:36:11;21.90;76.20
63313;DHT22;49442;45.640;13.812;2023-03-07T17:38:37;21.90;76.20
63313;DHT22;49442;45.640;13.812;2023-03-07T17:41:03;21.90;76.10
63313;DHT22;49442;45.640;13.812;2023-03-07T17:43:28;22.00;76.00
63313;DHT22;49442;45.640;13.812;2023-03-07T17:45:54;22.00;75.90
63313;DHT22;49442;45.640;13.812;2023-03-07T17:48:20;22.10;75.80
63313;DHT22;49442;45.640;13.812;2023-03-07T17:50:45;22.10;75.70
63313;DHT22;49442;45.640;13.812;2023-03-07T17:53:11;22.10;75.60
63313;DHT22;49442;45.640;13.812;2023-03-07T17:55:37;22.10;75.40